Time;durP1;ratioP1;P1;durP2;ratioP2;P2;SDS_P1;SDS_P2;PMS_P1;PMS_P2;Temp;Humidity;BMP_temperature;BMP_pressure;BME280_temperature;BME280_humidity;BME280_pressure;Samples;Min_cycle;Max_cycle;Signal;HPM_P1;HPM_P2
2022/07/08 00:02:08;;;;;;;;;;;;;;;16.62;70.96;100936.01;1636494;87;20272;-72
2022/07/08 00:04:33;;;;;;;;;;;;;;;16.64;71.01;100935.32;1636663;87;20478;-72
2022/07/08 00:06:59;;;;;;;;;;;;;;;16.62;71.08;100936.01;1637001;87;20181;-72
2022/07/08 00:09:28;;;;;;;;;;;;;;;16.62;71.18;100938.70;1636738;87;21176;-72
2022/07/08 00:11:54;;;;;;;;;;;;;;;16.60;71.26;100938.92;1636588;87;20167;-72
2022/07/08 00:14:20;;;;;;;;;;;;;;;16.60;71.33;100942.95;1636762;87;20205;-72
2022/07/08 00:16:46;;;;;;;;;;;;;;;16.56;71.47;100940.33;1638485;86;20185;-72
2022/07/08 00:19:14;;;;;;;;;;;;;;;16.50;71.55;100944.59;1636287;87;20450;-72
2022/07/08 00:21:43;;;;;;;;;;;;;;;16.42;71.65;100948.79;1636470;87;21131;-72
2022/07/08 00:24:08;;;;;;;;;;;;;;;16.33;71.76;100947.75;1636681;86;20160;-72
2022/07/08 00:26:34;;;;;;;;;;;;;;;16.25;71.86;100947.40;1636754;87;20289;-72
2022/07/08 00:29:00;;;;;;;;;;;;;;;16.19;71.98;100951.34;1636839;87;20194;-72
2022/07/08 00:31:26;;;;;;;;;;;;;;;16.14;72.07;100953.30;1636615;87;20301;-72
2022/07/08 00:33:52;;;;;;;;;;;;;;;16.13;72.15;100962.89;1636710;87;21093;-72
2022/07/08 00:36:17;;;;;;;;;;;;;;;16.10;72.26;100964.12;1636617;87;20213;-72
2022/07/08 00:38:43;;;;;;;;;;;;;;;16.09;72.36;100967.82;1637085;87;20757;-72
2022/07/08 00:41:10;;;;;;;;;;;;;;;16.08;72.43;100970.19;1639831;86;20233;-72
2022/07/08 00:43:42;;;;;;;;;;;;;;;16.09;72.50;100970.52;1636881;87;20200;-72
2022/07/08 00:46:08;;;;;;;;;;;;;;;16.07;72.62;100972.58;1639447;87;21849;-72
2022/07/08 00:48:34;;;;;;;;;;;;;;;16.06;72.69;100972.75;1640108;87;20193;-72
2022/07/08 00:51:01;;;;;;;;;;;;;;;16.04;72.77;100977.00;1640910;87;20195;-72
2022/07/08 00:53:27;;;;;;;;;;;;;;;16.03;72.86;100973.98;1636734;87;20175;-72
2022/07/08 00:55:53;;;;;;;;;;;;;;;16.02;72.96;100975.00;1618120;87;20264;-72
2022/07/08 00:58:19;;;;;;;;;;;;;;;16.03;73.01;100975.83;1636638;86;21081;-72
2022/07/08 01:00:45;;;;;;;;;;;;;;;16.04;73.08;100978.34;1598843;88;20193;-72
2022/07/08 01:03:11;;;;;;;;;;;;;;;16.05;73.17;100977.80;1629846;86;20239;-72
2022/07/08 01:05:37;;;;;;;;;;;;;;;16.06;73.25;100978.97;1637595;85;20181;-72
2022/07/08 01:08:03;;;;;;;;;;;;;;;16.06;73.31;100980.83;1637355;85;20300;-72
2022/07/08 01:10:29;;;;;;;;;;;;;;;16.04;73.38;100982.37;1611923;87;21260;-72
2022/07/08 01:12:56;;;;;;;;;;;;;;;16.07;73.45;100976.61;1627492;87;20670;-72
2022/07/08 01:15:23;;;;;;;;;;;;;;;16.08;73.47;100984.18;1631468;85;20486;-72
2022/07/08 01:17:48;;;;;;;;;;;;;;;16.08;73.54;100982.30;1628720;85;20501;-72
2022/07/08 01:20:14;;;;;;;;;;;;;;;16.08;73.59;100986.33;1641989;86;20174;-72
2022/07/08 01:22:41;;;;;;;;;;;;;;;16.09;73.63;100986.66;1641194;86;21129;-72
2022/07/08 01:25:07;;;;;;;;;;;;;;;16.11;73.68;100988.66;1643103;87;20532;-71
2022/07/08 01:27:33;;;;;;;;;;;;;;;16.12;73.69;100988.97;1641054;87;20186;-71
2022/07/08 01:29:58;;;;;;;;;;;;;;;16.10;73.76;100988.34;1639403;87;20185;-71
2022/07/08 01:32:33;;;;;;;;;;;;;;;16.08;73.81;101001.12;1641558;87;20169;-71
2022/07/08 01:34:58;;;;;;;;;;;;;;;16.05;73.88;100997.48;1641963;84;21295;-71
2022/07/08 01:37:24;;;;;;;;;;;;;;;16.04;73.95;100996.34;1641899;86;20205;-71
2022/07/08 01:39:50;;;;;;;;;;;;;;;16.02;74.07;101002.41;1639227;86;20170;-71
2022/07/08 01:42:16;;;;;;;;;;;;;;;15.98;74.12;101001.45;1640093;86;20189;-71
2022/07/08 01:44:42;;;;;;;;;;;;;;;15.97;74.13;101003.00;1639834;87;20285;-71
2022/07/08 01:49:34;;;;;;;;;;;;;;;15.96;74.21;101008.89;1739050;80;94652;-71
2022/07/08 01:52:00;;;;;;;;;;;;;;;15.96;74.24;101013.43;1732589;82;20803;-71
2022/07/08 01:54:26;;;;;;;;;;;;;;;15.93;74.28;101013.81;1723744;82;20577;-71
2022/07/08 01:57:13;;;;;;;;;;;;;;;15.89;74.35;101019.25;1727584;81;20171;-71
2022/07/08 01:59:20;;;;;;;;;;;;;;;15.89;74.39;101017.91;1718251;82;21028;-70
2022/07/08 02:01:45;;;;;;;;;;;;;;;15.86;74.44;101015.59;1729645;81;20255;-70
2022/07/08 02:04:12;;;;;;;;;;;;;;;15.82;74.50;101019.17;1722655;81;20177;-70
2022/07/08 02:06:38;;;;;;;;;;;;;;;15.79;74.61;101022.75;1715211;82;20204;-70
2022/07/08 02:09:03;;;;;;;;;;;;;;;15.76;74.68;101016.41;1726163;82;20237;-70
2022/07/08 02:14:13;;;;;;;;;;;;;;;15.78;74.76;101027.80;1715271;82;20144;-70
2022/07/08 02:16:39;;;;;;;;;;;;;;;15.78;74.79;101027.80;1714862;82;20841;-70
2022/07/08 02:19:05;;;;;;;;;;;;;;;15.78;74.83;101026.45;1715063;82;20201;-70
2022/07/08 02:21:31;;;;;;;;;;;;;;;15.77;74.87;101028.81;1714746;82;20233;-70
2022/07/08 02:23:56;;;;;;;;;;;;;;;15.74;74.91;101027.84;1715236;82;21115;-70
2022/07/08 02:26:22;;;;;;;;;;;;;;;15.73;74.97;101031.55;1714870;82;20253;-70
2022/07/08 02:28:48;;;;;;;;;;;;;;;15.73;75.02;101039.62;1715362;82;20252;-70
2022/07/08 02:31:14;;;;;;;;;;;;;;;15.74;75.08;101034.56;1715599;82;20225;-70
2022/07/08 02:33:40;;;;;;;;;;;;;;;15.74;75.13;101031.38;1715254;82;20199;-70
2022/07/08 02:36:07;;;;;;;;;;;;;;;15.74;75.19;101027.84;1715966;81;21136;-70
2022/07/08 02:38:32;;;;;;;;;;;;;;;15.71;75.22;101039.82;1714273;82;20222;-70
2022/07/08 02:40:58;;;;;;;;;;;;;;;15.69;75.32;101036.47;1715936;82;20261;-70
2022/07/08 02:43:24;;;;;;;;;;;;;;;15.70;75.34;101035.96;1715288;82;20158;-70
2022/07/08 02:45:50;;;;;;;;;;;;;;;15.69;75.38;101045.08;1715547;82;20285;-70
2022/07/08 02:48:17;;;;;;;;;;;;;;;15.71;75.41;101049.73;1746358;81;21145;-70
2022/07/08 02:50:42;;;;;;;;;;;;;;;15.68;75.44;101041.55;1770038;81;20160;-70
2022/07/08 02:53:08;;;;;;;;;;;;;;;15.68;75.48;101050.12;1770587;81;20203;-70
2022/07/08 02:55:34;;;;;;;;;;;;;;;15.69;75.51;101049.11;1770041;81;20766;-70
2022/07/08 02:58:00;;;;;;;;;;;;;;;15.69;75.52;101056.64;1770508;80;20199;-70
2022/07/08 03:00:26;;;;;;;;;;;;;;;15.69;75.59;101063.90;1770164;81;21165;-70
2022/07/08 03:02:52;;;;;;;;;;;;;;;15.70;75.64;101069.58;1769994;81;20190;-70
2022/07/08 03:05:18;;;;;;;;;;;;;;;15.70;75.65;101064.20;1770232;81;20754;-70
2022/07/08 03:07:43;;;;;;;;;;;;;;;15.71;75.64;101071.25;1765104;81;20225;-70
2022/07/08 03:10:09;;;;;;;;;;;;;;;15.71;75.66;101064.53;1754477;81;20172;-71
2022/07/08 03:12:35;;;;;;;;;;;;;;;15.71;75.66;101071.25;1770519;81;21078;-70
2022/07/08 03:15:01;;;;;;;;;;;;;;;15.71;75.70;101068.56;1770637;81;20278;-70
2022/07/08 03:17:27;;;;;;;;;;;;;;;15.71;75.71;101074.78;1770388;81;20175;-70
2022/07/08 03:19:53;;;;;;;;;;;;;;;15.73;75.72;101077.27;1770555;81;20711;-70
2022/07/08 03:22:18;;;;;;;;;;;;;;;15.75;75.71;101081.97;1770144;81;20191;-70
2022/07/08 03:24:44;;;;;;;;;;;;;;;15.76;75.71;101074.23;1770348;81;21155;-70
2022/07/08 03:27:10;;;;;;;;;;;;;;;15.80;75.67;101086.26;1770611;81;20187;-70
2022/07/08 03:29:36;;;;;;;;;;;;;;;15.82;75.69;101090.45;1770573;81;20270;-70
2022/07/08 03:32:02;;;;;;;;;;;;;;;15.83;75.68;101096.12;1770470;81;20143;-70
2022/07/08 03:34:28;;;;;;;;;;;;;;;15.83;75.70;101089.41;1770479;80;20176;-70
2022/07/08 03:36:54;;;;;;;;;;;;;;;15.84;75.72;101090.24;1770533;81;21811;-70
2022/07/08 03:39:20;;;;;;;;;;;;;;;15.87;75.72;101089.86;1770333;81;20187;-70
2022/07/08 03:41:46;;;;;;;;;;;;;;;15.89;75.73;101095.91;1770419;81;20262;-70
2022/07/08 03:44:12;;;;;;;;;;;;;;;15.90;75.68;101093.55;1770061;81;20505;-70
2022/07/08 03:46:38;;;;;;;;;;;;;;;15.89;75.66;101106.16;1770518;81;20219;-71
2022/07/08 03:49:03;;;;;;;;;;;;;;;15.89;75.65;101103.98;1770154;81;21171;-70
2022/07/08 03:51:29;;;;;;;;;;;;;;;15.90;75.61;101100.28;1770597;81;20203;-70
2022/07/08 03:53:55;;;;;;;;;;;;;;;15.90;75.60;101098.94;1770583;81;20754;-70
2022/07/08 03:56:21;;;;;;;;;;;;;;;15.90;75.59;101109.70;1769884;81;20460;-70
2022/07/08 03:58:48;;;;;;;;;;;;;;;15.90;75.58;101113.73;1770445;81;20187;-70
2022/07/08 04:01:14;;;;;;;;;;;;;;;15.91;75.57;101118.06;1749074;81;21333;-70
2022/07/08 04:03:40;;;;;;;;;;;;;;;15.90;75.58;101116.42;1770209;81;20258;-70
2022/07/08 04:06:06;;;;;;;;;;;;;;;15.90;75.58;101126.64;1770475;81;20206;-70
2022/07/08 04:08:32;;;;;;;;;;;;;;;15.90;75.58;101126.64;1770214;80;20176;-70
2022/07/08 04:10:58;;;;;;;;;;;;;;;15.94;75.60;101128.45;1770627;81;20267;-70
2022/07/08 04:13:27;;;;;;;;;;;;;;;15.96;75.60;101127.77;1770035;81;21006;-70
2022/07/08 04:15:51;;;;;;;;;;;;;;;15.99;75.63;101126.05;1770204;81;20184;-70
2022/07/08 04:18:17;;;;;;;;;;;;;;;16.06;75.63;101132.34;1770591;81;20289;-70
2022/07/08 04:20:43;;;;;;;;;;;;;;;16.10;75.60;101136.84;1770428;81;20684;-71
2022/07/08 04:23:08;;;;;;;;;;;;;;;16.14;75.59;101140.33;1770517;81;20230;-70
2022/07/08 04:25:34;;;;;;;;;;;;;;;16.14;75.59;101141.67;1770726;81;21095;-70
2022/07/08 04:28:00;;;;;;;;;;;;;;;16.17;75.57;101141.80;1770446;81;20218;-70
2022/07/08 04:30:26;;;;;;;;;;;;;;;16.18;75.55;101138.94;1770503;81;20202;-70
2022/07/08 04:32:52;;;;;;;;;;;;;;;16.18;75.54;101155.08;1770607;81;20176;-71
2022/07/08 04:35:18;;;;;;;;;;;;;;;16.20;75.52;101155.72;1770167;81;20155;-70
2022/07/08 04:37:44;;;;;;;;;;;;;;;16.21;75.54;101148.48;1770409;80;21159;-70
2022/07/08 04:40:10;;;;;;;;;;;;;;;16.22;75.52;101161.73;1770439;81;20203;-70
2022/07/08 04:42:36;;;;;;;;;;;;;;;16.24;75.52;101163.74;1770213;81;20161;-71
2022/07/08 04:45:04;;;;;;;;;;;;;;;16.27;75.49;101156.63;1770306;80;20152;-70
2022/07/08 04:47:29;;;;;;;;;;;;;;;16.31;75.46;101159.27;1770298;81;20188;-70
2022/07/08 04:49:55;;;;;;;;;;;;;;;16.36;75.43;101157.38;1770434;81;21620;-70
2022/07/08 04:52:21;;;;;;;;;;;;;;;16.36;75.39;101158.72;1769826;81;20890;-70
2022/07/08 04:54:47;;;;;;;;;;;;;;;16.43;75.38;101159.63;1770431;81;20183;-70
2022/07/08 04:57:13;;;;;;;;;;;;;;;16.49;75.33;101163.74;1770349;81;20163;-70
2022/07/08 04:59:39;;;;;;;;;;;;;;;16.58;75.28;101166.33;1770467;81;20250;-70
2022/07/08 05:02:04;;;;;;;;;;;;;;;16.70;75.27;101166.16;1770583;80;21865;-70
2022/07/08 05:04:30;;;;;;;;;;;;;;;16.87;75.24;101171.63;1770292;80;20230;-70
2022/07/08 05:06:56;;;;;;;;;;;;;;;17.07;75.10;101174.50;1770503;81;20207;-70
2022/07/08 05:09:22;;;;;;;;;;;;;;;17.18;74.98;101174.83;1770273;80;20528;-71
2022/07/08 05:11:48;;;;;;;;;;;;;;;17.37;74.85;101179.56;1770598;81;20778;-70
2022/07/08 05:14:13;;;;;;;;;;;;;;;17.41;74.71;101181.36;1770082;81;21108;-70
2022/07/08 05:16:40;;;;;;;;;;;;;;;17.37;74.55;101177.38;1770243;81;20207;-70
2022/07/08 05:19:07;;;;;;;;;;;;;;;17.36;74.45;101183.80;1770575;81;20141;-70
2022/07/08 05:21:36;;;;;;;;;;;;;;;17.31;74.33;101185.72;1770208;81;20180;-70
2022/07/08 05:24:01;;;;;;;;;;;;;;;17.13;74.17;101198.84;1770554;81;20180;-70
2022/07/08 05:26:27;;;;;;;;;;;;;;;16.98;74.12;101201.60;1770312;81;21073;-70
2022/07/08 05:28:53;;;;;;;;;;;;;;;16.88;74.04;101198.91;1770337;81;20226;-70
2022/07/08 05:31:19;;;;;;;;;;;;;;;16.80;73.98;101201.20;1770161;81;20270;-70
2022/07/08 05:33:44;;;;;;;;;;;;;;;16.78;73.93;101202.42;1770293;81;20185;-70
2022/07/08 05:36:10;;;;;;;;;;;;;;;16.82;73.88;101205.03;1770497;81;20761;-70
2022/07/08 05:38:36;;;;;;;;;;;;;;;16.93;73.85;101200.48;1770550;81;21074;-70
2022/07/08 05:41:02;;;;;;;;;;;;;;;17.02;73.79;101211.48;1770537;80;20179;-70
2022/07/08 05:43:27;;;;;;;;;;;;;;;17.00;73.73;101206.78;1770475;81;20246;-70
2022/07/08 05:45:53;;;;;;;;;;;;;;;16.95;73.66;101215.47;1770487;81;20663;-70
2022/07/08 05:48:21;;;;;;;;;;;;;;;16.95;73.64;101215.47;1769606;81;20195;-71
2022/07/08 05:50:48;;;;;;;;;;;;;;;16.98;73.60;101219.63;1764933;80;21162;-71
2022/07/08 05:53:17;;;;;;;;;;;;;;;17.03;73.56;101217.17;1773118;80;20455;-71
2022/07/08 05:55:43;;;;;;;;;;;;;;;17.09;73.51;101219.13;1773404;80;20169;-71
2022/07/08 05:58:09;;;;;;;;;;;;;;;17.04;73.44;101213.46;1773305;80;20149;-71
2022/07/08 06:00:35;;;;;;;;;;;;;;;16.96;73.38;101208.19;1773350;80;20163;-71
2022/07/08 06:03:03;;;;;;;;;;;;;;;17.03;73.43;101210.44;1773527;81;21105;-71
2022/07/08 06:05:29;;;;;;;;;;;;;;;17.11;73.38;101209.48;1773358;80;20136;-71
2022/07/08 06:07:55;;;;;;;;;;;;;;;17.15;73.31;101217.00;1725876;83;20290;-71
2022/07/08 06:10:21;;;;;;;;;;;;;;;17.10;73.24;101214.57;1770265;81;20167;-71
2022/07/08 06:12:47;;;;;;;;;;;;;;;17.14;73.23;101216.67;1725036;83;20156;-71
2022/07/08 06:15:14;;;;;;;;;;;;;;;17.17;73.16;101218.17;1762841;81;21170;-71
2022/07/08 06:17:41;;;;;;;;;;;;;;;17.19;73.12;101216.94;1773364;81;20168;-71
2022/07/08 06:20:08;;;;;;;;;;;;;;;17.30;73.09;101215.59;1773488;81;20436;-71
2022/07/08 06:22:33;;;;;;;;;;;;;;;17.53;73.06;101224.80;1773208;80;20207;-70
2022/07/08 06:24:59;;;;;;;;;;;;;;;17.72;72.91;101229.55;1773549;80;20242;-71
2022/07/08 06:27:26;;;;;;;;;;;;;;;17.83;72.79;101229.86;1773037;80;21142;-71
2022/07/08 06:29:52;;;;;;;;;;;;;;;18.12;72.73;101239.58;1773314;80;20177;-71
2022/07/08 06:32:18;;;;;;;;;;;;;;;18.12;72.48;101242.81;1774059;80;20210;-71
2022/07/08 06:34:46;;;;;;;;;;;;;;;17.95;72.31;101247.67;1772620;81;20137;-71
2022/07/08 06:37:11;;;;;;;;;;;;;;;17.81;72.21;101246.74;1766294;81;20448;-71
2022/07/08 06:39:37;;;;;;;;;;;;;;;17.63;72.08;101256.34;1773907;80;21080;-71
2022/07/08 06:42:03;;;;;;;;;;;;;;;17.47;72.00;101258.27;1752561;81;20822;-71
2022/07/08 06:44:29;;;;;;;;;;;;;;;17.36;71.94;101261.48;1774106;81;20145;-71
2022/07/08 06:46:55;;;;;;;;;;;;;;;17.28;71.90;101263.45;1774190;81;20182;-71
2022/07/08 06:49:21;;;;;;;;;;;;;;;17.21;71.90;101266.09;1774184;80;20759;-71
2022/07/08 06:51:47;;;;;;;;;;;;;;;17.15;71.86;101264.17;1770899;80;20557;-71
2022/07/08 06:56:57;;;;;;;;;;;;;;;17.13;71.85;101266.75;1770835;80;20188;-70
2022/07/08 06:59:23;;;;;;;;;;;;;;;17.09;71.81;101267.64;1771171;80;20163;-70
2022/07/08 07:01:49;;;;;;;;;;;;;;;17.09;71.79;101278.93;1759440;80;20524;-69
2022/07/08 07:04:15;;;;;;;;;;;;;;;17.17;71.85;101278.82;1759357;80;22252;-70
2022/07/08 07:06:40;;;;;;;;;;;;;;;17.27;71.83;101273.44;1768895;80;20441;-70
2022/07/08 07:09:06;;;;;;;;;;;;;;;17.40;71.79;101274.91;1769419;80;20258;-70
2022/07/08 07:11:32;;;;;;;;;;;;;;;17.39;71.70;101281.83;1768025;80;20231;-70
2022/07/08 07:13:58;;;;;;;;;;;;;;;17.39;71.67;101282.66;1766278;80;20759;-67
2022/07/08 07:16:24;;;;;;;;;;;;;;;17.48;71.68;101277.48;1766159;81;21905;-67
2022/07/08 07:18:50;;;;;;;;;;;;;;;17.65;71.60;101275.88;1754390;81;20742;-67
2022/07/08 07:21:15;;;;;;;;;;;;;;;17.78;71.51;101282.73;1769666;81;20263;-67
2022/07/08 07:23:41;;;;;;;;;;;;;;;17.89;71.43;101287.09;1765434;80;20285;-67
2022/07/08 07:26:07;;;;;;;;;;;;;;;17.85;71.29;101293.90;1758741;80;20297;-67
2022/07/08 07:28:34;;;;;;;;;;;;;;;17.88;71.24;101294.02;1759297;81;22076;-66
2022/07/08 07:31:00;;;;;;;;;;;;;;;17.92;71.18;101297.48;1751217;80;20161;-67
2022/07/08 07:33:25;;;;;;;;;;;;;;;17.93;71.02;101297.81;1760090;80;20219;-67
2022/07/08 07:35:51;;;;;;;;;;;;;;;17.90;70.94;101302.77;1740963;81;20174;-68
2022/07/08 07:38:17;;;;;;;;;;;;;;;17.82;70.81;101302.39;1756839;81;20335;-67
2022/07/08 07:40:43;;;;;;;;;;;;;;;17.74;70.70;101301.68;1757705;80;21088;-68
2022/07/08 07:43:09;;;;;;;;;;;;;;;17.80;70.67;101309.02;1752491;80;20185;-67
2022/07/08 07:45:35;;;;;;;;;;;;;;;17.90;70.59;101308.17;1750400;80;20142;-67
2022/07/08 07:48:01;;;;;;;;;;;;;;;18.11;70.52;101312.17;1743317;81;20475;-68
2022/07/08 07:50:27;;;;;;;;;;;;;;;18.41;70.43;101320.36;1763599;80;20258;-70
2022/07/08 07:52:53;;;;;;;;;;;;;;;18.70;70.23;101318.48;1748119;80;21228;-70
2022/07/08 07:55:19;;;;;;;;;;;;;;;18.92;69.96;101321.39;1745986;80;20125;-70
2022/07/08 07:57:46;;;;;;;;;;;;;;;19.00;69.72;101322.55;1754616;80;20199;-70
2022/07/08 08:00:13;;;;;;;;;;;;;;;19.10;69.52;101323.03;1755048;81;20152;-70
2022/07/08 08:02:39;;;;;;;;;;;;;;;19.08;69.28;101317.48;1755976;81;20156;-69
2022/07/08 08:05:05;;;;;;;;;;;;;;;19.03;69.08;101319.47;1748835;81;21034;-69
2022/07/08 08:07:31;;;;;;;;;;;;;;;19.05;68.93;101317.38;1750907;81;20478;-70
2022/07/08 08:09:57;;;;;;;;;;;;;;;18.99;68.68;101325.47;1747357;80;20210;-70
2022/07/08 08:12:23;;;;;;;;;;;;;;;19.02;68.56;101319.14;1757885;81;20206;-70
2022/07/08 08:14:49;;;;;;;;;;;;;;;19.30;68.48;101326.61;1755653;81;20147;-70
2022/07/08 08:17:15;;;;;;;;;;;;;;;19.31;68.13;101321.53;1755223;80;21124;-70
2022/07/08 08:19:40;;;;;;;;;;;;;;;19.30;67.97;101314.45;1756961;81;20206;-70
2022/07/08 08:22:06;;;;;;;;;;;;;;;19.18;67.66;101324.17;1757814;81;20269;-70
2022/07/08 08:24:32;;;;;;;;;;;;;;;19.12;67.50;101314.18;1757900;81;20179;-70
2022/07/08 08:26:58;;;;;;;;;;;;;;;19.03;67.27;101310.52;1752537;80;20868;-70
2022/07/08 08:29:24;;;;;;;;;;;;;;;19.10;67.09;101318.13;1749470;81;21153;-71
2022/07/08 08:31:50;;;;;;;;;;;;;;;19.46;66.77;101313.78;1753053;81;20166;-70
2022/07/08 08:34:16;;;;;;;;;;;;;;;19.38;66.34;101319.67;1751726;80;20770;-70
2022/07/08 08:36:42;;;;;;;;;;;;;;;19.21;66.16;101321.06;1754789;80;20150;-70
2022/07/08 08:39:08;;;;;;;;;;;;;;;18.95;66.08;101329.94;1755764;80;20502;-70
2022/07/08 08:41:33;;;;;;;;;;;;;;;18.73;66.02;101332.94;1749908;80;21181;-70
2022/07/08 08:43:59;;;;;;;;;;;;;;;18.57;65.99;101340.03;1742885;80;20210;-70
2022/07/08 08:46:25;;;;;;;;;;;;;;;18.51;65.95;101344.89;1748099;80;20255;-69
2022/07/08 08:48:56;;;;;;;;;;;;;;;18.50;65.99;101348.58;1733375;80;20658;-72
2022/07/08 08:51:22;;;;;;;;;;;;;;;18.40;65.88;101344.34;1751837;79;20149;-69
2022/07/08 08:53:48;;;;;;;;;;;;;;;18.29;65.88;101331.42;1758363;79;21191;-69
2022/07/08 08:56:15;;;;;;;;;;;;;;;18.31;65.88;101344.19;1763046;79;20166;-70
2022/07/08 08:58:46;;;;;;;;;;;;;;;18.47;65.92;101342.52;1764295;79;20153;-70
2022/07/08 09:01:10;;;;;;;;;;;;;;;18.58;65.82;101349.27;1765905;79;20215;-70
2022/07/08 09:03:36;;;;;;;;;;;;;;;18.68;65.75;101335.42;1759235;79;20856;-70
2022/07/08 09:06:03;;;;;;;;;;;;;;;19.09;65.89;101335.38;1767415;80;20544;-71
2022/07/08 09:08:29;;;;;;;;;;;;;;;19.53;65.65;101330.32;1765946;80;20172;-70
2022/07/08 09:10:54;;;;;;;;;;;;;;;19.63;65.27;101336.70;1773069;79;20261;-71
2022/07/08 09:13:23;;;;;;;;;;;;;;;19.68;65.06;101341.80;1773229;80;20538;-70
2022/07/08 09:15:50;;;;;;;;;;;;;;;19.78;64.77;101335.97;1761482;79;20155;-71
2022/07/08 09:18:20;;;;;;;;;;;;;;;20.03;64.70;101336.19;1757126;79;21034;-70
2022/07/08 09:20:48;;;;;;;;;;;;;;;20.16;64.12;101333.50;1741536;80;20467;-71
2022/07/08 09:23:20;;;;;;;;;;;;;;;20.13;63.91;101330.66;1752516;80;20152;-71
2022/07/08 09:25:48;;;;;;;;;;;;;;;20.69;63.86;101330.20;1767912;80;20163;-71
2022/07/08 09:28:16;;;;;;;;;;;;;;;21.08;63.21;101325.95;1768202;79;20180;-71
2022/07/08 09:30:42;;;;;;;;;;;;;;;21.44;62.62;101322.66;1766457;79;21434;-71
2022/07/08 09:33:08;;;;;;;;;;;;;;;21.51;62.00;101323.44;1775414;79;20450;-73
2022/07/08 09:35:36;;;;;;;;;;;;;;;21.29;61.58;101325.66;1741234;79;20286;-71
2022/07/08 09:38:03;;;;;;;;;;;;;;;21.07;61.18;101324.30;1770396;80;20595;-71
2022/07/08 09:40:29;;;;;;;;;;;;;;;21.07;61.06;101317.52;1772789;79;20463;-71
2022/07/08 09:42:55;;;;;;;;;;;;;;;21.43;60.90;101318.81;1739270;80;21407;-71
2022/07/08 09:45:23;;;;;;;;;;;;;;;21.69;60.38;101312.66;1764054;79;20181;-71
2022/07/08 09:47:51;;;;;;;;;;;;;;;22.06;60.11;101312.83;1770394;79;20585;-71
2022/07/08 09:50:17;;;;;;;;;;;;;;;22.47;59.71;101312.20;1769507;79;20314;-72
2022/07/08 09:52:43;;;;;;;;;;;;;;;22.40;58.97;101320.42;1768108;80;20755;-71
2022/07/08 09:55:09;;;;;;;;;;;;;;;22.18;58.67;101310.50;1762977;80;21740;-71
2022/07/08 09:57:35;;;;;;;;;;;;;;;22.19;58.01;101312.17;1765204;80;20171;-74
2022/07/08 10:00:01;;;;;;;;;;;;;;;22.30;57.72;101315.52;1768066;81;20185;-71
2022/07/08 10:02:27;;;;;;;;;;;;;;;22.05;57.16;101317.42;1760988;80;20226;-72
2022/07/08 10:04:53;;;;;;;;;;;;;;;21.61;56.86;101308.02;1762417;80;20176;-71
2022/07/08 10:07:19;;;;;;;;;;;;;;;21.51;56.72;101317.17;1745814;80;22256;-72
2022/07/08 10:09:45;;;;;;;;;;;;;;;21.62;56.58;101320.55;1712478;82;20265;-72
2022/07/08 10:12:11;;;;;;;;;;;;;;;21.49;56.27;101315.22;1747776;81;20193;-72
2022/07/08 10:14:37;;;;;;;;;;;;;;;21.35;56.22;101322.62;1718299;81;20184;-73
2022/07/08 10:17:03;;;;;;;;;;;;;;;21.16;56.00;101326.26;1737644;80;20644;-74
2022/07/08 10:19:30;;;;;;;;;;;;;;;20.78;55.77;101319.41;1724343;81;21112;-73
2022/07/08 10:21:57;;;;;;;;;;;;;;;20.71;55.88;101321.31;1762488;81;20505;-73
2022/07/08 10:24:25;;;;;;;;;;;;;;;20.94;55.87;101318.91;1767545;80;20176;-73
2022/07/08 10:26:51;;;;;;;;;;;;;;;21.13;55.80;101299.05;1753110;81;20206;-73
2022/07/08 10:29:17;;;;;;;;;;;;;;;21.35;55.56;101312.59;1749821;81;20655;-73
2022/07/08 10:31:46;;;;;;;;;;;;;;;21.27;55.27;101301.99;1769899;81;21268;-72
2022/07/08 10:34:15;;;;;;;;;;;;;;;21.32;55.21;101307.58;1727847;81;20191;-74
2022/07/08 10:36:52;;;;;;;;;;;;;;;21.47;55.09;101309.16;1717878;82;20174;-74
2022/07/08 10:39:37;;;;;;;;;;;;;;;21.73;55.00;101315.25;1754948;80;20180;-74
2022/07/08 10:42:04;;;;;;;;;;;;;;;22.06;54.33;101320.98;1765595;80;20164;-75
2022/07/08 10:44:49;;;;;;;;;;;;;;;22.30;53.96;101318.23;1758433;80;21473;-75
2022/07/08 10:47:29;;;;;;;;;;;;;;;22.47;53.80;101312.20;1754681;81;20215;-75
2022/07/08 10:50:05;;;;;;;;;;;;;;;22.78;53.54;101301.19;1764921;81;20163;-75
2022/07/08 10:52:39;;;;;;;;;;;;;;;22.86;53.03;101302.25;1758048;80;20505;-74
2022/07/08 10:55:13;;;;;;;;;;;;;;;22.66;52.74;101300.28;1757929;80;20167;-75
2022/07/08 10:57:55;;;;;;;;;;;;;;;22.67;52.76;101296.52;1752414;80;21570;-75
2022/07/08 11:00:22;;;;;;;;;;;;;;;22.76;52.58;101301.41;1760992;80;20184;-75
2022/07/08 11:02:48;;;;;;;;;;;;;;;22.60;51.93;101293.84;1764083;80;20164;-75
2022/07/08 11:05:35;;;;;;;;;;;;;;;22.50;51.84;101300.86;1756579;80;20232;-75
2022/07/08 11:08:23;;;;;;;;;;;;;;;22.30;51.48;101303.80;1761048;80;20173;-74
2022/07/08 11:10:50;;;;;;;;;;;;;;;22.13;51.18;101314.40;1753825;80;21601;-74
2022/07/08 11:13:15;;;;;;;;;;;;;;;22.14;51.10;101316.07;1765609;80;20448;-73
2022/07/08 11:15:41;;;;;;;;;;;;;;;22.10;51.01;101328.44;1738008;81;20256;-73
2022/07/08 11:18:07;;;;;;;;;;;;;;;22.22;51.00;101323.11;1758969;80;20710;-75
2022/07/08 11:20:35;;;;;;;;;;;;;;;22.37;50.56;101332.59;1761276;81;20203;-73
2022/07/08 11:23:04;;;;;;;;;;;;;;;22.25;49.92;101334.36;1760979;80;22366;-74
2022/07/08 11:25:31;;;;;;;;;;;;;;;22.27;49.67;101334.16;1752979;80;20191;-74
2022/07/08 11:27:56;;;;;;;;;;;;;;;22.73;49.51;101334.50;1748976;81;20199;-74
2022/07/08 11:30:22;;;;;;;;;;;;;;;23.00;49.15;101326.88;1735161;81;20307;-74
2022/07/08 11:32:49;;;;;;;;;;;;;;;22.88;48.88;101320.52;1742067;81;20242;-74
2022/07/08 11:35:17;;;;;;;;;;;;;;;22.77;48.99;101317.20;1748420;81;21662;-74
2022/07/08 11:37:45;;;;;;;;;;;;;;;22.66;49.11;101324.75;1769830;81;20172;-74
2022/07/08 11:40:12;;;;;;;;;;;;;;;22.41;48.97;101315.30;1770167;81;20156;-74
2022/07/08 11:42:40;;;;;;;;;;;;;;;22.10;49.00;101331.16;1770174;81;20452;-74
2022/07/08 11:45:08;;;;;;;;;;;;;;;22.14;49.19;101340.52;1761633;80;20336;-74
2022/07/08 11:47:34;;;;;;;;;;;;;;;22.30;49.30;101345.41;1742520;81;21490;-74
2022/07/08 11:50:00;;;;;;;;;;;;;;;22.34;49.20;101330.29;1767997;81;20262;-74
2022/07/08 11:52:27;;;;;;;;;;;;;;;22.30;49.15;101329.10;1767245;80;20289;-74
2022/07/08 11:54:53;;;;;;;;;;;;;;;22.09;48.98;101334.11;1768537;80;20870;-74
2022/07/08 11:57:21;;;;;;;;;;;;;;;21.94;48.96;101330.36;1777450;80;20824;-75
2022/07/08 11:59:48;;;;;;;;;;;;;;;21.85;49.03;101331.12;1773296;80;20846;-74
2022/07/08 12:02:16;;;;;;;;;;;;;;;21.77;49.06;101332.77;1761750;80;20486;-75
2022/07/08 12:04:47;;;;;;;;;;;;;;;21.97;49.27;101333.99;1741110;80;20100;-75
2022/07/08 12:07:27;;;;;;;;;;;;;;;22.22;49.30;101325.30;1770598;80;20163;-74
2022/07/08 12:09:57;;;;;;;;;;;;;;;22.47;49.30;101328.50;1766600;80;20145;-75
2022/07/08 12:12:26;;;;;;;;;;;;;;;22.44;49.25;101323.52;1725002;81;21482;-74
2022/07/08 12:14:52;;;;;;;;;;;;;;;22.46;49.04;101321.40;1716728;80;20187;-74
2022/07/08 12:17:27;;;;;;;;;;;;;;;22.41;48.76;101309.31;1744461;80;20458;-75
2022/07/08 12:19:55;;;;;;;;;;;;;;;22.50;48.62;101312.58;1764196;81;20302;-74
2022/07/08 12:22:48;;;;;;;;;;;;;;;22.35;48.10;101320.25;1763011;81;20153;-74
2022/07/08 12:25:18;;;;;;;;;;;;;;;22.32;48.06;101316.62;1745331;81;22054;-74
2022/07/08 12:27:44;;;;;;;;;;;;;;;22.65;48.07;101304.05;1763418;81;20528;-74
2022/07/08 12:30:10;;;;;;;;;;;;;;;22.66;47.99;101313.88;1764787;81;20567;-74
2022/07/08 12:32:41;;;;;;;;;;;;;;;22.57;47.82;101311.97;1764542;81;21124;-74
2022/07/08 12:35:08;;;;;;;;;;;;;;;22.28;47.59;101317.61;1763922;81;20212;-73
2022/07/08 12:37:33;;;;;;;;;;;;;;;22.01;47.50;101318.91;1763228;81;21190;-74
2022/07/08 12:40:16;;;;;;;;;;;;;;;21.86;47.57;101312.95;1761145;81;20176;-74
2022/07/08 12:42:42;;;;;;;;;;;;;;;21.76;47.62;101309.89;1753226;80;20196;-74